sensor_id;sensor_type;location;lat;lon;timestamp;P1;durP1;ratioP1;P2;durP2;ratioP2
21120;SDS011;12519;43.318;21.898;2024-01-10T00:03:46;11.0;;;10.0;;
21120;SDS011;12519;43.318;21.898;2024-01-10T00:08:23;14.0;;;12.0;;
21120;SDS011;12519;43.318;21.898;2024-01-10T00:12:59;14.0;;;12.0;;
21120;SDS011;12519;43.318;21.898;2024-01-10T00:17:35;14.0;;;12.0;;
21120;SDS011;12519;43.318;21.898;2024-01-10T00:22:12;16.0;;;15.0;;
21120;SDS011;12519;43.318;21.898;2024-01-10T00:26:48;16.0;;;15.0;;
21120;SDS011;12519;43.318;21.898;2024-01-10T00:31:25;14.0;;;14.0;;
21120;SDS011;12519;43.318;21.898;2024-01-10T00:36:01;14.0;;;14.0;;
21120;SDS011;12519;43.318;21.898;2024-01-10T00:40:37;13.0;;;12.0;;
21120;SDS011;12519;43.318;21.898;2024-01-10T00:45:14;13.0;;;12.0;;
21120;SDS011;12519;43.318;21.898;2024-01-10T00:49:50;15.0;;;14.0;;
21120;SDS011;12519;43.318;21.898;2024-01-10T00:54:26;15.0;;;14.0;;
21120;SDS011;12519;43.318;21.898;2024-01-10T00:59:02;17.0;;;16.0;;
21120;SDS011;12519;43.318;21.898;2024-01-10T01:03:38;17.0;;;16.0;;
21120;SDS011;12519;43.318;21.898;2024-01-10T01:08:15;17.0;;;16.0;;
21120;SDS011;12519;43.318;21.898;2024-01-10T01:12:51;18.0;;;14.0;;
21120;SDS011;12519;43.318;21.898;2024-01-10T01:17:28;18.0;;;14.0;;
21120;SDS011;12519;43.318;21.898;2024-01-10T01:22:04;19.0;;;12.0;;
21120;SDS011;12519;43.318;21.898;2024-01-10T01:26:41;19.0;;;12.0;;
21120;SDS011;12519;43.318;21.898;2024-01-10T01:31:18;14.0;;;10.0;;
21120;SDS011;12519;43.318;21.898;2024-01-10T01:35:54;14.0;;;10.0;;
21120;SDS011;12519;43.318;21.898;2024-01-10T01:40:31;9.0;;;9.0;;
21120;SDS011;12519;43.318;21.898;2024-01-10T01:45:09;9.0;;;9.0;;
21120;SDS011;12519;43.318;21.898;2024-01-10T01:49:45;8.0;;;7.0;;
21120;SDS011;12519;43.318;21.898;2024-01-10T01:54:24;8.0;;;7.0;;
21120;SDS011;12519;43.318;21.898;2024-01-10T01:59:04;6.0;;;5.0;;
21120;SDS011;12519;43.318;21.898;2024-01-10T02:03:40;6.0;;;5.0;;
21120;SDS011;12519;43.318;21.898;2024-01-10T02:08:17;6.0;;;5.0;;
21120;SDS011;12519;43.318;21.898;2024-01-10T02:12:53;6.0;;;6.0;;
21120;SDS011;12519;43.318;21.898;2024-01-10T02:17:29;6.0;;;6.0;;
21120;SDS011;12519;43.318;21.898;2024-01-10T02:22:06;6.0;;;6.0;;
21120;SDS011;12519;43.318;21.898;2024-01-10T02:26:43;6.0;;;6.0;;
21120;SDS011;12519;43.318;21.898;2024-01-10T02:31:19;8.0;;;6.0;;
21120;SDS011;12519;43.318;21.898;2024-01-10T02:35:56;8.0;;;6.0;;
21120;SDS011;12519;43.318;21.898;2024-01-10T02:40:32;9.0;;;5.0;;
21120;SDS011;12519;43.318;21.898;2024-01-10T02:45:09;9.0;;;5.0;;
21120;SDS011;12519;43.318;21.898;2024-01-10T02:49:46;8.0;;;6.0;;
21120;SDS011;12519;43.318;21.898;2024-01-10T02:54:22;8.0;;;6.0;;
21120;SDS011;12519;43.318;21.898;2024-01-10T02:58:58;7.0;;;6.0;;
21120;SDS011;12519;43.318;21.898;2024-01-10T03:03:35;7.0;;;6.0;;
21120;SDS011;12519;43.318;21.898;2024-01-10T03:08:11;7.0;;;6.0;;
21120;SDS011;12519;43.318;21.898;2024-01-10T03:12:48;8.0;;;6.0;;
21120;SDS011;12519;43.318;21.898;2024-01-10T03:17:24;8.0;;;6.0;;
21120;SDS011;12519;43.318;21.898;2024-01-10T03:22:00;8.0;;;5.0;;
21120;SDS011;12519;43.318;21.898;2024-01-10T03:26:36;8.0;;;5.0;;
21120;SDS011;12519;43.318;21.898;2024-01-10T03:31:13;6.0;;;5.0;;
21120;SDS011;12519;43.318;21.898;2024-01-10T03:35:49;6.0;;;5.0;;
21120;SDS011;12519;43.318;21.898;2024-01-10T03:40:26;5.0;;;5.0;;
21120;SDS011;12519;43.318;21.898;2024-01-10T03:45:04;5.0;;;5.0;;
21120;SDS011;12519;43.318;21.898;2024-01-10T03:49:42;8.0;;;6.0;;
21120;SDS011;12519;43.318;21.898;2024-01-10T03:54:18;8.0;;;6.0;;
21120;SDS011;12519;43.318;21.898;2024-01-10T03:58:55;11.0;;;7.0;;
21120;SDS011;12519;43.318;21.898;2024-01-10T04:03:31;11.0;;;7.0;;
21120;SDS011;12519;43.318;21.898;2024-01-10T04:08:09;11.0;;;7.0;;
21120;SDS011;12519;43.318;21.898;2024-01-10T04:12:46;8.0;;;6.0;;
21120;SDS011;12519;43.318;21.898;2024-01-10T04:17:22;8.0;;;6.0;;
21120;SDS011;12519;43.318;21.898;2024-01-10T04:22:00;6.0;;;6.0;;
21120;SDS011;12519;43.318;21.898;2024-01-10T04:26:37;6.0;;;6.0;;
21120;SDS011;12519;43.318;21.898;2024-01-10T04:31:13;6.0;;;6.0;;
21120;SDS011;12519;43.318;21.898;2024-01-10T04:35:50;6.0;;;6.0;;
21120;SDS011;12519;43.318;21.898;2024-01-10T04:40:26;5.0;;;5.0;;
21120;SDS011;12519;43.318;21.898;2024-01-10T04:45:04;5.0;;;5.0;;
21120;SDS011;12519;43.318;21.898;2024-01-10T04:49:42;6.0;;;6.0;;
21120;SDS011;12519;43.318;21.898;2024-01-10T04:54:18;6.0;;;6.0;;
21120;SDS011;12519;43.318;21.898;2024-01-10T04:58:55;7.0;;;6.0;;
21120;SDS011;12519;43.318;21.898;2024-01-10T05:03:31;7.0;;;6.0;;
21120;SDS011;12519;43.318;21.898;2024-01-10T05:08:07;7.0;;;6.0;;
21120;SDS011;12519;43.318;21.898;2024-01-10T05:12:44;6.0;;;6.0;;
21120;SDS011;12519;43.318;21.898;2024-01-10T05:17:21;6.0;;;6.0;;
21120;SDS011;12519;43.318;21.898;2024-01-10T05:21:57;5.0;;;5.0;;
21120;SDS011;12519;43.318;21.898;2024-01-10T05:26:34;5.0;;;5.0;;
21120;SDS011;12519;43.318;21.898;2024-01-10T05:31:10;6.0;;;5.0;;
21120;SDS011;12519;43.318;21.898;2024-01-10T05:35:47;6.0;;;5.0;;
21120;SDS011;12519;43.318;21.898;2024-01-10T05:40:23;6.0;;;5.0;;
21120;SDS011;12519;43.318;21.898;2024-01-10T05:45:00;6.0;;;5.0;;
21120;SDS011;12519;43.318;21.898;2024-01-10T05:49:37;7.0;;;6.0;;
21120;SDS011;12519;43.318;21.898;2024-01-10T05:54:13;7.0;;;6.0;;
21120;SDS011;12519;43.318;21.898;2024-01-10T05:58:49;7.0;;;6.0;;
21120;SDS011;12519;43.318;21.898;2024-01-10T06:03:25;8.0;;;7.0;;
21120;SDS011;12519;43.318;21.898;2024-01-10T06:08:02;8.0;;;7.0;;
21120;SDS011;12519;43.318;21.898;2024-01-10T06:12:39;8.0;;;8.0;;
21120;SDS011;12519;43.318;21.898;2024-01-10T06:17:15;8.0;;;8.0;;
21120;SDS011;12519;43.318;21.898;2024-01-10T06:21:51;9.0;;;9.0;;
21120;SDS011;12519;43.318;21.898;2024-01-10T06:26:27;9.0;;;9.0;;
21120;SDS011;12519;43.318;21.898;2024-01-10T06:31:04;12.0;;;11.0;;
21120;SDS011;12519;43.318;21.898;2024-01-10T06:35:41;12.0;;;11.0;;
21120;SDS011;12519;43.318;21.898;2024-01-10T06:40:18;14.0;;;13.0;;
21120;SDS011;12519;43.318;21.898;2024-01-10T06:44:54;14.0;;;13.0;;
21120;SDS011;12519;43.318;21.898;2024-01-10T06:49:31;13.0;;;12.0;;
21120;SDS011;12519;43.318;21.898;2024-01-10T06:54:07;13.0;;;12.0;;
21120;SDS011;12519;43.318;21.898;2024-01-10T06:58:44;13.0;;;12.0;;
21120;SDS011;12519;43.318;21.898;2024-01-10T07:03:20;12.0;;;12.0;;
21120;SDS011;12519;43.318;21.898;2024-01-10T07:07:56;12.0;;;12.0;;
21120;SDS011;12519;43.318;21.898;2024-01-10T07:12:33;12.0;;;11.0;;
21120;SDS011;12519;43.318;21.898;2024-01-10T07:17:10;12.0;;;11.0;;
21120;SDS011;12519;43.318;21.898;2024-01-10T07:21:46;12.0;;;10.0;;
21120;SDS011;12519;43.318;21.898;2024-01-10T07:26:22;12.0;;;10.0;;
21120;SDS011;12519;43.318;21.898;2024-01-10T07:30:58;12.0;;;10.0;;
21120;SDS011;12519;43.318;21.898;2024-01-10T07:35:34;12.0;;;10.0;;
21120;SDS011;12519;43.318;21.898;2024-01-10T07:40:11;12.0;;;11.0;;
21120;SDS011;12519;43.318;21.898;2024-01-10T07:44:47;12.0;;;11.0;;
21120;SDS011;12519;43.318;21.898;2024-01-10T07:49:23;10.0;;;9.0;;
21120;SDS011;12519;43.318;21.898;2024-01-10T07:53:59;10.0;;;9.0;;
21120;SDS011;12519;43.318;21.898;2024-01-10T07:58:36;10.0;;;9.0;;
21120;SDS011;12519;43.318;21.898;2024-01-10T08:03:12;8.0;;;7.0;;
21120;SDS011;12519;43.318;21.898;2024-01-10T08:07:48;8.0;;;7.0;;
21120;SDS011;12519;43.318;21.898;2024-01-10T08:12:25;9.0;;;8.0;;
21120;SDS011;12519;43.318;21.898;2024-01-10T08:17:01;9.0;;;8.0;;
21120;SDS011;12519;43.318;21.898;2024-01-10T08:21:38;10.0;;;8.0;;
21120;SDS011;12519;43.318;21.898;2024-01-10T08:26:14;10.0;;;8.0;;
21120;SDS011;12519;43.318;21.898;2024-01-10T08:30:51;12.0;;;10.0;;
21120;SDS011;12519;43.318;21.898;2024-01-10T08:35:27;12.0;;;10.0;;
21120;SDS011;12519;43.318;21.898;2024-01-10T08:40:03;14.0;;;13.0;;
21120;SDS011;12519;43.318;21.898;2024-01-10T08:44:42;14.0;;;13.0;;
21120;SDS011;12519;43.318;21.898;2024-01-10T08:49:18;14.0;;;13.0;;
21120;SDS011;12519;43.318;21.898;2024-01-10T08:53:55;41.0;;;28.0;;
21120;SDS011;12519;43.318;21.898;2024-01-10T08:58:31;41.0;;;28.0;;
21120;SDS011;12519;43.318;21.898;2024-01-10T09:03:08;68.0;;;43.0;;
21120;SDS011;12519;43.318;21.898;2024-01-10T09:07:44;68.0;;;43.0;;
21120;SDS011;12519;43.318;21.898;2024-01-10T09:12:21;130.0;;;94.0;;
21120;SDS011;12519;43.318;21.898;2024-01-10T09:16:58;130.0;;;94.0;;
21120;SDS011;12519;43.318;21.898;2024-01-10T09:21:35;191.0;;;145.0;;
21120;SDS011;12519;43.318;21.898;2024-01-10T09:26:15;191.0;;;145.0;;
21120;SDS011;12519;43.318;21.898;2024-01-10T09:30:51;112.0;;;88.0;;
21120;SDS011;12519;43.318;21.898;2024-01-10T09:35:28;112.0;;;88.0;;
21120;SDS011;12519;43.318;21.898;2024-01-10T09:40:05;33.0;;;31.0;;
21120;SDS011;12519;43.318;21.898;2024-01-10T09:44:51;33.0;;;31.0;;
21120;SDS011;12519;43.318;21.898;2024-01-10T09:49:29;33.0;;;31.0;;
21120;SDS011;12519;43.318;21.898;2024-01-10T09:54:06;32.0;;;26.0;;
21120;SDS011;12519;43.318;21.898;2024-01-10T09:58:43;32.0;;;26.0;;
21120;SDS011;12519;43.318;21.898;2024-01-10T10:03:27;32.0;;;21.0;;
21120;SDS011;12519;43.318;21.898;2024-01-10T10:08:06;32.0;;;21.0;;
21120;SDS011;12519;43.318;21.898;2024-01-10T10:12:48;28.0;;;19.0;;
21120;SDS011;12519;43.318;21.898;2024-01-10T10:17:28;28.0;;;19.0;;
21120;SDS011;12519;43.318;21.898;2024-01-10T10:22:07;25.0;;;17.0;;
21120;SDS011;12519;43.318;21.898;2024-01-10T10:26:45;25.0;;;17.0;;
21120;SDS011;12519;43.318;21.898;2024-01-10T10:31:23;19.0;;;14.0;;
21120;SDS011;12519;43.318;21.898;2024-01-10T10:36:01;19.0;;;14.0;;
21120;SDS011;12519;43.318;21.898;2024-01-10T10:40:41;13.0;;;12.0;;
21120;SDS011;12519;43.318;21.898;2024-01-10T10:45:18;13.0;;;12.0;;
21120;SDS011;12519;43.318;21.898;2024-01-10T10:49:55;14.0;;;10.0;;
21120;SDS011;12519;43.318;21.898;2024-01-10T10:54:39;14.0;;;10.0;;
21120;SDS011;12519;43.318;21.898;2024-01-10T10:59:18;14.0;;;10.0;;
21120;SDS011;12519;43.318;21.898;2024-01-10T11:04:02;16.0;;;9.0;;
21120;SDS011;12519;43.318;21.898;2024-01-10T11:08:42;16.0;;;9.0;;
21120;SDS011;12519;43.318;21.898;2024-01-10T11:13:45;15.0;;;9.0;;
21120;SDS011;12519;43.318;21.898;2024-01-10T11:19:17;15.0;;;9.0;;
21120;SDS011;12519;43.318;21.898;2024-01-10T11:24:56;14.0;;;9.0;;
21120;SDS011;12519;43.318;21.898;2024-01-10T11:29:33;14.0;;;9.0;;
21120;SDS011;12519;43.318;21.898;2024-01-10T11:34:13;12.0;;;8.0;;
21120;SDS011;12519;43.318;21.898;2024-01-10T11:38:56;12.0;;;8.0;;
21120;SDS011;12519;43.318;21.898;2024-01-10T11:43:39;9.0;;;8.0;;
21120;SDS011;12519;43.318;21.898;2024-01-10T11:48:16;9.0;;;8.0;;
21120;SDS011;12519;43.318;21.898;2024-01-10T11:53:03;9.0;;;8.0;;
21120;SDS011;12519;43.318;21.898;2024-01-10T11:57:39;9.0;;;8.0;;
21120;SDS011;12519;43.318;21.898;2024-01-10T12:02:15;9.0;;;8.0;;
21120;SDS011;12519;43.318;21.898;2024-01-10T12:06:57;9.0;;;8.0;;
21120;SDS011;12519;43.318;21.898;2024-01-10T12:11:34;10.0;;;8.0;;
21120;SDS011;12519;43.318;21.898;2024-01-10T12:16:11;10.0;;;8.0;;
21120;SDS011;12519;43.318;21.898;2024-01-10T12:20:50;11.0;;;8.0;;
21120;SDS011;12519;43.318;21.898;2024-01-10T12:25:26;11.0;;;8.0;;
21120;SDS011;12519;43.318;21.898;2024-01-10T12:30:03;10.0;;;8.0;;
21120;SDS011;12519;43.318;21.898;2024-01-10T12:34:45;10.0;;;8.0;;
21120;SDS011;12519;43.318;21.898;2024-01-10T12:39:21;10.0;;;8.0;;
21120;SDS011;12519;43.318;21.898;2024-01-10T12:43:58;10.0;;;8.0;;
21120;SDS011;12519;43.318;21.898;2024-01-10T12:48:37;10.0;;;8.0;;
21120;SDS011;12519;43.318;21.898;2024-01-10T12:53:17;16.0;;;14.0;;
21120;SDS011;12519;43.318;21.898;2024-01-10T12:57:53;16.0;;;14.0;;
21120;SDS011;12519;43.318;21.898;2024-01-10T13:02:30;23.0;;;20.0;;
21120;SDS011;12519;43.318;21.898;2024-01-10T13:07:06;23.0;;;20.0;;
21120;SDS011;12519;43.318;21.898;2024-01-10T13:11:43;16.0;;;14.0;;
21120;SDS011;12519;43.318;21.898;2024-01-10T13:16:20;16.0;;;14.0;;
21120;SDS011;12519;43.318;21.898;2024-01-10T13:20:56;9.0;;;9.0;;
21120;SDS011;12519;43.318;21.898;2024-01-10T13:25:34;9.0;;;9.0;;
21120;SDS011;12519;43.318;21.898;2024-01-10T13:30:12;10.0;;;9.0;;
21120;SDS011;12519;43.318;21.898;2024-01-10T13:34:49;10.0;;;9.0;;
21120;SDS011;12519;43.318;21.898;2024-01-10T13:39:26;10.0;;;9.0;;
21120;SDS011;12519;43.318;21.898;2024-01-10T13:44:02;10.0;;;9.0;;
21120;SDS011;12519;43.318;21.898;2024-01-10T13:48:39;10.0;;;9.0;;
21120;SDS011;12519;43.318;21.898;2024-01-10T13:53:15;10.0;;;8.0;;
21120;SDS011;12519;43.318;21.898;2024-01-10T13:57:51;10.0;;;8.0;;
21120;SDS011;12519;43.318;21.898;2024-01-10T14:02:27;11.0;;;8.0;;
21120;SDS011;12519;43.318;21.898;2024-01-10T14:07:03;11.0;;;8.0;;
21120;SDS011;12519;43.318;21.898;2024-01-10T14:11:40;11.0;;;8.0;;
21120;SDS011;12519;43.318;21.898;2024-01-10T14:16:16;11.0;;;8.0;;
21120;SDS011;12519;43.318;21.898;2024-01-10T14:20:51;11.0;;;9.0;;
21120;SDS011;12519;43.318;21.898;2024-01-10T14:25:28;11.0;;;9.0;;
21120;SDS011;12519;43.318;21.898;2024-01-10T14:30:05;11.0;;;9.0;;
21120;SDS011;12519;43.318;21.898;2024-01-10T14:34:44;12.0;;;10.0;;
21120;SDS011;12519;43.318;21.898;2024-01-10T14:39:21;12.0;;;10.0;;
21120;SDS011;12519;43.318;21.898;2024-01-10T14:43:58;13.0;;;10.0;;
21120;SDS011;12519;43.318;21.898;2024-01-10T14:48:35;13.0;;;10.0;;
21120;SDS011;12519;43.318;21.898;2024-01-10T14:53:12;12.0;;;10.0;;
21120;SDS011;12519;43.318;21.898;2024-01-10T14:57:49;12.0;;;10.0;;
21120;SDS011;12519;43.318;21.898;2024-01-10T15:02:25;12.0;;;11.0;;
21120;SDS011;12519;43.318;21.898;2024-01-10T15:07:02;12.0;;;11.0;;
21120;SDS011;12519;43.318;21.898;2024-01-10T15:11:41;12.0;;;10.0;;
21120;SDS011;12519;43.318;21.898;2024-01-10T15:16:18;12.0;;;10.0;;
21120;SDS011;12519;43.318;21.898;2024-01-10T15:20:54;11.0;;;10.0;;
21120;SDS011;12519;43.318;21.898;2024-01-10T15:25:30;11.0;;;10.0;;
21120;SDS011;12519;43.318;21.898;2024-01-10T15:30:07;11.0;;;10.0;;
21120;SDS011;12519;43.318;21.898;2024-01-10T15:34:47;15.0;;;11.0;;
21120;SDS011;12519;43.318;21.898;2024-01-10T15:39:23;15.0;;;11.0;;
21120;SDS011;12519;43.318;21.898;2024-01-10T15:43:59;19.0;;;12.0;;
21120;SDS011;12519;43.318;21.898;2024-01-10T15:48:36;19.0;;;12.0;;
21120;SDS011;12519;43.318;21.898;2024-01-10T15:53:12;18.0;;;12.0;;
21120;SDS011;12519;43.318;21.898;2024-01-10T15:57:48;18.0;;;12.0;;
21120;SDS011;12519;43.318;21.898;2024-01-10T16:02:25;18.0;;;13.0;;
21120;SDS011;12519;43.318;21.898;2024-01-10T16:07:03;18.0;;;13.0;;
21120;SDS011;12519;43.318;21.898;2024-01-10T16:11:40;16.0;;;13.0;;
21120;SDS011;12519;43.318;21.898;2024-01-10T16:16:20;16.0;;;13.0;;
21120;SDS011;12519;43.318;21.898;2024-01-10T16:21:03;14.0;;;13.0;;
21120;SDS011;12519;43.318;21.898;2024-01-10T16:25:41;14.0;;;13.0;;
21120;SDS011;12519;43.318;21.898;2024-01-10T16:30:17;14.0;;;13.0;;
21120;SDS011;12519;43.318;21.898;2024-01-10T16:34:53;18.0;;;15.0;;
21120;SDS011;12519;43.318;21.898;2024-01-10T16:39:29;18.0;;;15.0;;
21120;SDS011;12519;43.318;21.898;2024-01-10T16:44:05;22.0;;;17.0;;
21120;SDS011;12519;43.318;21.898;2024-01-10T16:48:41;22.0;;;17.0;;
21120;SDS011;12519;43.318;21.898;2024-01-10T16:53:18;20.0;;;16.0;;
21120;SDS011;12519;43.318;21.898;2024-01-10T16:57:54;20.0;;;16.0;;
21120;SDS011;12519;43.318;21.898;2024-01-10T17:02:30;17.0;;;16.0;;
21120;SDS011;12519;43.318;21.898;2024-01-10T17:07:07;17.0;;;16.0;;
21120;SDS011;12519;43.318;21.898;2024-01-10T17:11:43;36.0;;;25.0;;
21120;SDS011;12519;43.318;21.898;2024-01-10T17:16:19;36.0;;;25.0;;
21120;SDS011;12519;43.318;21.898;2024-01-10T17:20:56;54.0;;;34.0;;
21120;SDS011;12519;43.318;21.898;2024-01-10T17:25:32;54.0;;;34.0;;
21120;SDS011;12519;43.318;21.898;2024-01-10T17:30:08;54.0;;;34.0;;
21120;SDS011;12519;43.318;21.898;2024-01-10T17:34:47;42.0;;;30.0;;
21120;SDS011;12519;43.318;21.898;2024-01-10T17:39:23;42.0;;;30.0;;
21120;SDS011;12519;43.318;21.898;2024-01-10T17:44:00;31.0;;;27.0;;
21120;SDS011;12519;43.318;21.898;2024-01-10T17:48:36;31.0;;;27.0;;
21120;SDS011;12519;43.318;21.898;2024-01-10T17:53:12;31.0;;;26.0;;
21120;SDS011;12519;43.318;21.898;2024-01-10T17:57:49;31.0;;;26.0;;
21120;SDS011;12519;43.318;21.898;2024-01-10T18:02:25;31.0;;;25.0;;
21120;SDS011;12519;43.318;21.898;2024-01-10T18:07:01;31.0;;;25.0;;
21120;SDS011;12519;43.318;21.898;2024-01-10T18:11:38;24.0;;;20.0;;
21120;SDS011;12519;43.318;21.898;2024-01-10T18:16:14;24.0;;;20.0;;
21120;SDS011;12519;43.318;21.898;2024-01-10T18:20:50;17.0;;;15.0;;
21120;SDS011;12519;43.318;21.898;2024-01-10T18:25:26;17.0;;;15.0;;
21120;SDS011;12519;43.318;21.898;2024-01-10T18:30:02;17.0;;;15.0;;
21120;SDS011;12519;43.318;21.898;2024-01-10T18:34:43;14.0;;;12.0;;
21120;SDS011;12519;43.318;21.898;2024-01-10T18:39:19;14.0;;;12.0;;
21120;SDS011;12519;43.318;21.898;2024-01-10T18:43:55;11.0;;;10.0;;
21120;SDS011;12519;43.318;21.898;2024-01-10T18:48:32;11.0;;;10.0;;
21120;SDS011;12519;43.318;21.898;2024-01-10T18:53:08;12.0;;;11.0;;
21120;SDS011;12519;43.318;21.898;2024-01-10T18:57:44;12.0;;;11.0;;
21120;SDS011;12519;43.318;21.898;2024-01-10T19:02:21;13.0;;;12.0;;
21120;SDS011;12519;43.318;21.898;2024-01-10T19:06:57;13.0;;;12.0;;
21120;SDS011;12519;43.318;21.898;2024-01-10T19:11:33;19.0;;;15.0;;
21120;SDS011;12519;43.318;21.898;2024-01-10T19:16:10;19.0;;;15.0;;
21120;SDS011;12519;43.318;21.898;2024-01-10T19:20:46;19.0;;;15.0;;
21120;SDS011;12519;43.318;21.898;2024-01-10T19:25:22;25.0;;;18.0;;
21120;SDS011;12519;43.318;21.898;2024-01-10T19:29:58;25.0;;;18.0;;
21120;SDS011;12519;43.318;21.898;2024-01-10T19:34:34;50.0;;;36.0;;
21120;SDS011;12519;43.318;21.898;2024-01-10T19:39:10;50.0;;;36.0;;
21120;SDS011;12519;43.318;21.898;2024-01-10T19:43:47;74.0;;;53.0;;
21120;SDS011;12519;43.318;21.898;2024-01-10T19:48:26;74.0;;;53.0;;
21120;SDS011;12519;43.318;21.898;2024-01-10T19:53:03;62.0;;;48.0;;
21120;SDS011;12519;43.318;21.898;2024-01-10T19:57:39;62.0;;;48.0;;
21120;SDS011;12519;43.318;21.898;2024-01-10T20:02:16;51.0;;;43.0;;
21120;SDS011;12519;43.318;21.898;2024-01-10T20:06:53;51.0;;;43.0;;
21120;SDS011;12519;43.318;21.898;2024-01-10T20:11:29;43.0;;;37.0;;
21120;SDS011;12519;43.318;21.898;2024-01-10T20:16:06;43.0;;;37.0;;
21120;SDS011;12519;43.318;21.898;2024-01-10T20:20:43;43.0;;;37.0;;
21120;SDS011;12519;43.318;21.898;2024-01-10T20:25:20;35.0;;;31.0;;
21120;SDS011;12519;43.318;21.898;2024-01-10T20:29:57;35.0;;;31.0;;
21120;SDS011;12519;43.318;21.898;2024-01-10T20:34:34;56.0;;;42.0;;
21120;SDS011;12519;43.318;21.898;2024-01-10T20:39:11;56.0;;;42.0;;
21120;SDS011;12519;43.318;21.898;2024-01-10T20:43:47;77.0;;;53.0;;
21120;SDS011;12519;43.318;21.898;2024-01-10T20:48:23;77.0;;;53.0;;
21120;SDS011;12519;43.318;21.898;2024-01-10T20:52:59;62.0;;;48.0;;
21120;SDS011;12519;43.318;21.898;2024-01-10T20:57:35;62.0;;;48.0;;
21120;SDS011;12519;43.318;21.898;2024-01-10T21:02:11;46.0;;;43.0;;
21120;SDS011;12519;43.318;21.898;2024-01-10T21:06:47;46.0;;;43.0;;
21120;SDS011;12519;43.318;21.898;2024-01-10T21:11:24;62.0;;;52.0;;
21120;SDS011;12519;43.318;21.898;2024-01-10T21:16:01;62.0;;;52.0;;
21120;SDS011;12519;43.318;21.898;2024-01-10T21:20:38;62.0;;;52.0;;
21120;SDS011;12519;43.318;21.898;2024-01-10T21:25:14;78.0;;;60.0;;
21120;SDS011;12519;43.318;21.898;2024-01-10T21:29:51;78.0;;;60.0;;
21120;SDS011;12519;43.318;21.898;2024-01-10T21:34:27;73.0;;;58.0;;
21120;SDS011;12519;43.318;21.898;2024-01-10T21:39:04;73.0;;;58.0;;
21120;SDS011;12519;43.318;21.898;2024-01-10T21:43:40;68.0;;;56.0;;
21120;SDS011;12519;43.318;21.898;2024-01-10T21:48:17;68.0;;;56.0;;
21120;SDS011;12519;43.318;21.898;2024-01-10T21:52:53;64.0;;;54.0;;
21120;SDS011;12519;43.318;21.898;2024-01-10T21:57:29;64.0;;;54.0;;
21120;SDS011;12519;43.318;21.898;2024-01-10T22:02:05;60.0;;;53.0;;
21120;SDS011;12519;43.318;21.898;2024-01-10T22:06:42;60.0;;;53.0;;
21120;SDS011;12519;43.318;21.898;2024-01-10T22:11:18;71.0;;;54.0;;
21120;SDS011;12519;43.318;21.898;2024-01-10T22:15:55;71.0;;;54.0;;
21120;SDS011;12519;43.318;21.898;2024-01-10T22:20:31;71.0;;;54.0;;
21120;SDS011;12519;43.318;21.898;2024-01-10T22:25:07;82.0;;;56.0;;
21120;SDS011;12519;43.318;21.898;2024-01-10T22:29:44;82.0;;;56.0;;
21120;SDS011;12519;43.318;21.898;2024-01-10T22:34:21;66.0;;;50.0;;
21120;SDS011;12519;43.318;21.898;2024-01-10T22:38:57;66.0;;;50.0;;
21120;SDS011;12519;43.318;21.898;2024-01-10T22:43:34;51.0;;;45.0;;
21120;SDS011;12519;43.318;21.898;2024-01-10T22:48:10;51.0;;;45.0;;
21120;SDS011;12519;43.318;21.898;2024-01-10T22:52:47;45.0;;;38.0;;
21120;SDS011;12519;43.318;21.898;2024-01-10T22:57:24;45.0;;;38.0;;
21120;SDS011;12519;43.318;21.898;2024-01-10T23:02:00;39.0;;;31.0;;
21120;SDS011;12519;43.318;21.898;2024-01-10T23:06:37;39.0;;;31.0;;
21120;SDS011;12519;43.318;21.898;2024-01-10T23:11:14;39.0;;;31.0;;
21120;SDS011;12519;43.318;21.898;2024-01-10T23:15:50;46.0;;;36.0;;
21120;SDS011;12519;43.318;21.898;2024-01-10T23:20:27;46.0;;;36.0;;
21120;SDS011;12519;43.318;21.898;2024-01-10T23:25:03;54.0;;;41.0;;
21120;SDS011;12519;43.318;21.898;2024-01-10T23:29:42;54.0;;;41.0;;
21120;SDS011;12519;43.318;21.898;2024-01-10T23:34:18;50.0;;;38.0;;
21120;SDS011;12519;43.318;21.898;2024-01-10T23:38:54;50.0;;;38.0;;
21120;SDS011;12519;43.318;21.898;2024-01-10T23:43:30;47.0;;;36.0;;
21120;SDS011;12519;43.318;21.898;2024-01-10T23:48:07;47.0;;;36.0;;
21120;SDS011;12519;43.318;21.898;2024-01-10T23:52:43;44.0;;;36.0;;
21120;SDS011;12519;43.318;21.898;2024-01-10T23:57:19;44.0;;;36.0;;
